sensor_id;sensor_type;location;lat;lon;timestamp;pressure;altitude;pressure_sealevel;temperature
72054;BMP280;59918;51.280;7.950;2023-07-28T00:01:42;97022.84;;;17.07
72054;BMP280;59918;51.280;7.950;2023-07-28T00:04:07;97025.16;;;17.09
72054;BMP280;59918;51.280;7.950;2023-07-28T00:06:33;97032.94;;;17.09
72054;BMP280;59918;51.280;7.950;2023-07-28T00:08:58;97026.97;;;17.08
72054;BMP280;59918;51.280;7.950;2023-07-28T00:11:23;97024.38;;;17.08
72054;BMP280;59918;51.280;7.950;2023-07-28T00:13:52;97021.53;;;17.10
72054;BMP280;59918;51.280;7.950;2023-07-28T00:16:17;97018.66;;;17.06
72054;BMP280;59918;51.280;7.950;2023-07-28T00:18:42;97027.22;;;17.07
72054;BMP280;59918;51.280;7.950;2023-07-28T00:21:07;97023.34;;;17.04
72054;BMP280;59918;51.280;7.950;2023-07-28T00:23:33;97018.16;;;17.04
72054;BMP280;59918;51.280;7.950;2023-07-28T00:25:58;97021.53;;;17.05
72054;BMP280;59918;51.280;7.950;2023-07-28T00:28:23;97023.34;;;17.04
72054;BMP280;59918;51.280;7.950;2023-07-28T00:30:54;97031.66;;;17.06
72054;BMP280;59918;51.280;7.950;2023-07-28T00:33:19;97029.06;;;17.06
72054;BMP280;59918;51.280;7.950;2023-07-28T00:35:45;97013.22;;;17.08
72054;BMP280;59918;51.280;7.950;2023-07-28T00:38:10;97028.56;;;17.09
72054;BMP280;59918;51.280;7.950;2023-07-28T00:40:36;97012.69;;;17.11
72054;BMP280;59918;51.280;7.950;2023-07-28T00:43:04;97011.66;;;17.12
72054;BMP280;59918;51.280;7.950;2023-07-28T00:45:30;97010.59;;;17.13
72054;BMP280;59918;51.280;7.950;2023-07-28T00:47:56;97005.69;;;17.11
72054;BMP280;59918;51.280;7.950;2023-07-28T00:50:21;97007.78;;;17.09
72054;BMP280;59918;51.280;7.950;2023-07-28T00:52:47;97002.06;;;17.07
72054;BMP280;59918;51.280;7.950;2023-07-28T00:55:18;97018.66;;;17.06
72054;BMP280;59918;51.280;7.950;2023-07-28T00:57:43;97013.72;;;17.05
72054;BMP280;59918;51.280;7.950;2023-07-28T01:00:09;97004.41;;;17.04
72054;BMP280;59918;51.280;7.950;2023-07-28T01:02:36;97001.81;;;17.04
72054;BMP280;59918;51.280;7.950;2023-07-28T01:05:04;97003.84;;;17.07
72054;BMP280;59918;51.280;7.950;2023-07-28T01:10:32;97007.25;;;17.07
72054;BMP280;59918;51.280;7.950;2023-07-28T01:12:57;97015.03;;;17.07
72054;BMP280;59918;51.280;7.950;2023-07-28T01:15:22;97006.97;;;17.09
72054;BMP280;59918;51.280;7.950;2023-07-28T01:17:54;97008.53;;;17.10
72054;BMP280;59918;51.280;7.950;2023-07-28T01:20:22;97010.38;;;17.09
72054;BMP280;59918;51.280;7.950;2023-07-28T01:27:57;97003.59;;;17.13
72054;BMP280;59918;51.280;7.950;2023-07-28T01:30:23;97002.56;;;17.14
72054;BMP280;59918;51.280;7.950;2023-07-28T01:32:56;96991.38;;;17.14
72054;BMP280;59918;51.280;7.950;2023-07-28T01:35:22;97001.78;;;17.14
72054;BMP280;59918;51.280;7.950;2023-07-28T01:37:47;97000.22;;;17.13
72054;BMP280;59918;51.280;7.950;2023-07-28T01:40:18;96993.47;;;17.12
72054;BMP280;59918;51.280;7.950;2023-07-28T01:42:44;96992.44;;;17.08
72054;BMP280;59918;51.280;7.950;2023-07-28T01:45:12;96991.13;;;17.10
72054;BMP280;59918;51.280;7.950;2023-07-28T01:47:40;96991.13;;;17.10
72054;BMP280;59918;51.280;7.950;2023-07-28T01:50:06;96998.16;;;17.10
72054;BMP280;59918;51.280;7.950;2023-07-28T01:52:31;96982.81;;;17.08
72054;BMP280;59918;51.280;7.950;2023-07-28T01:54:56;96990.63;;;17.08
72054;BMP280;59918;51.280;7.950;2023-07-28T01:57:21;96998.41;;;17.08
72054;BMP280;59918;51.280;7.950;2023-07-28T01:59:47;96999.97;;;17.09
72054;BMP280;59918;51.280;7.950;2023-07-28T02:02:12;97000.75;;;17.10
72054;BMP280;59918;51.280;7.950;2023-07-28T02:04:43;97001.53;;;17.10
72054;BMP280;59918;51.280;7.950;2023-07-28T02:07:08;96993.72;;;17.10
72054;BMP280;59918;51.280;7.950;2023-07-28T02:09:34;96998.16;;;17.10
72054;BMP280;59918;51.280;7.950;2023-07-28T02:11:59;97000.50;;;17.11
72054;BMP280;59918;51.280;7.950;2023-07-28T02:14:30;96998.66;;;17.12
72054;BMP280;59918;51.280;7.950;2023-07-28T02:16:55;97001.25;;;17.12
72054;BMP280;59918;51.280;7.950;2023-07-28T02:19:20;97003.84;;;17.12
72054;BMP280;59918;51.280;7.950;2023-07-28T02:21:46;97004.63;;;17.12
72054;BMP280;59918;51.280;7.950;2023-07-28T02:24:11;97009.06;;;17.12
72054;BMP280;59918;51.280;7.950;2023-07-28T02:26:36;97006.72;;;17.10
72054;BMP280;59918;51.280;7.950;2023-07-28T02:29:01;97002.28;;;17.11
72054;BMP280;59918;51.280;7.950;2023-07-28T02:31:26;97006.72;;;17.10
72054;BMP280;59918;51.280;7.950;2023-07-28T02:33:52;97004.63;;;17.12
72054;BMP280;59918;51.280;7.950;2023-07-28T02:36:23;97014.53;;;17.15
72054;BMP280;59918;51.280;7.950;2023-07-28T02:38:48;97008.50;;;17.15
72054;BMP280;59918;51.280;7.950;2023-07-28T02:41:13;97017.13;;;17.15
72054;BMP280;59918;51.280;7.950;2023-07-28T02:43:38;97015.53;;;17.14
72054;BMP280;59918;51.280;7.950;2023-07-28T02:46:04;97009.34;;;17.15
72054;BMP280;59918;51.280;7.950;2023-07-28T02:48:35;97012.47;;;17.17
72054;BMP280;59918;51.280;7.950;2023-07-28T02:51:00;97012.47;;;17.17
72054;BMP280;59918;51.280;7.950;2023-07-28T02:53:26;97017.66;;;17.17
72054;BMP280;59918;51.280;7.950;2023-07-28T02:55:51;97029.06;;;17.16
72054;BMP280;59918;51.280;7.950;2023-07-28T02:58:16;97019.75;;;17.15
72054;BMP280;59918;51.280;7.950;2023-07-28T03:00:47;97035.03;;;17.17
72054;BMP280;59918;51.280;7.950;2023-07-28T03:03:13;97031.88;;;17.15
72054;BMP280;59918;51.280;7.950;2023-07-28T03:05:39;97033.50;;;17.16
72054;BMP280;59918;51.280;7.950;2023-07-28T03:08:05;97030.91;;;17.16
72054;BMP280;59918;51.280;7.950;2023-07-28T03:10:34;97035.03;;;17.17
72054;BMP280;59918;51.280;7.950;2023-07-28T03:12:59;97022.34;;;17.15
72054;BMP280;59918;51.280;7.950;2023-07-28T03:15:24;97021.28;;;17.16
72054;BMP280;59918;51.280;7.950;2023-07-28T03:17:50;97036.88;;;17.16
72054;BMP280;59918;51.280;7.950;2023-07-28T03:20:15;97025.44;;;17.17
72054;BMP280;59918;51.280;7.950;2023-07-28T03:22:41;97031.16;;;17.19
72054;BMP280;59918;51.280;7.950;2023-07-28T03:25:14;97039.72;;;17.19
72054;BMP280;59918;51.280;7.950;2023-07-28T03:27:40;97031.94;;;17.19
72054;BMP280;59918;51.280;7.950;2023-07-28T03:30:05;97030.09;;;17.20
72054;BMP280;59918;51.280;7.950;2023-07-28T03:32:34;97030.63;;;17.22
72054;BMP280;59918;51.280;7.950;2023-07-28T03:34:59;97031.38;;;17.22
72054;BMP280;59918;51.280;7.950;2023-07-28T03:37:24;97032.19;;;17.23
72054;BMP280;59918;51.280;7.950;2023-07-28T03:39:49;97025.94;;;17.24
72054;BMP280;59918;51.280;7.950;2023-07-28T03:42:15;97036.84;;;17.26
72054;BMP280;59918;51.280;7.950;2023-07-28T03:44:40;97038.41;;;17.27
72054;BMP280;59918;51.280;7.950;2023-07-28T03:47:08;97036.59;;;17.27
72054;BMP280;59918;51.280;7.950;2023-07-28T03:49:34;97036.84;;;17.26
72054;BMP280;59918;51.280;7.950;2023-07-28T03:51:59;97041.53;;;17.29
72054;BMP280;59918;51.280;7.950;2023-07-28T03:54:24;97050.88;;;17.30
72054;BMP280;59918;51.280;7.950;2023-07-28T03:56:50;97041.25;;;17.30
72054;BMP280;59918;51.280;7.950;2023-07-28T03:59:15;97042.81;;;17.31
72054;BMP280;59918;51.280;7.950;2023-07-28T04:01:40;97034.25;;;17.31
72054;BMP280;59918;51.280;7.950;2023-07-28T04:04:11;97043.06;;;17.35
72054;BMP280;59918;51.280;7.950;2023-07-28T04:09:09;97039.94;;;17.38
72054;BMP280;59918;51.280;7.950;2023-07-28T04:11:34;97046.19;;;17.37
72054;BMP280;59918;51.280;7.950;2023-07-28T04:14:00;97045.13;;;17.38
72054;BMP280;59918;51.280;7.950;2023-07-28T04:16:25;97045.66;;;17.40
72054;BMP280;59918;51.280;7.950;2023-07-28T04:18:51;97053.44;;;17.40
72054;BMP280;59918;51.280;7.950;2023-07-28T04:21:16;97045.91;;;17.38
72054;BMP280;59918;51.280;7.950;2023-07-28T04:23:41;97048.00;;;17.41
72054;BMP280;59918;51.280;7.950;2023-07-28T04:26:09;97042.53;;;17.43
72054;BMP280;59918;51.280;7.950;2023-07-28T04:28:36;97043.06;;;17.45
72054;BMP280;59918;51.280;7.950;2023-07-28T04:31:01;97053.97;;;17.47
72054;BMP280;59918;51.280;7.950;2023-07-28T04:33:26;97054.47;;;17.44
72054;BMP280;59918;51.280;7.950;2023-07-28T04:35:51;97056.03;;;17.45
72054;BMP280;59918;51.280;7.950;2023-07-28T04:38:25;97065.91;;;17.48
72054;BMP280;59918;51.280;7.950;2023-07-28T04:40:50;97064.06;;;17.48
72054;BMP280;59918;51.280;7.950;2023-07-28T04:43:16;97060.19;;;17.51
72054;BMP280;59918;51.280;7.950;2023-07-28T04:45:44;97058.09;;;17.53
72054;BMP280;59918;51.280;7.950;2023-07-28T04:48:10;97061.22;;;17.54
72054;BMP280;59918;51.280;7.950;2023-07-28T04:50:35;97064.84;;;17.58
72054;BMP280;59918;51.280;7.950;2023-07-28T04:53:00;97068.97;;;17.59
72054;BMP280;59918;51.280;7.950;2023-07-28T04:55:25;97073.16;;;17.60
72054;BMP280;59918;51.280;7.950;2023-07-28T04:57:51;97076.53;;;17.61
72054;BMP280;59918;51.280;7.950;2023-07-28T05:00:16;97075.47;;;17.62
72054;BMP280;59918;51.280;7.950;2023-07-28T05:02:48;97071.59;;;17.64
72054;BMP280;59918;51.280;7.950;2023-07-28T05:05:13;97069.50;;;17.66
72054;BMP280;59918;51.280;7.950;2023-07-28T05:07:38;97065.31;;;17.70
72054;BMP280;59918;51.280;7.950;2023-07-28T05:10:04;97070.78;;;17.74
72054;BMP280;59918;51.280;7.950;2023-07-28T05:12:35;97079.88;;;17.76
72054;BMP280;59918;51.280;7.950;2023-07-28T05:15:00;97077.78;;;17.78
72054;BMP280;59918;51.280;7.950;2023-07-28T05:17:26;97079.81;;;17.81
72054;BMP280;59918;51.280;7.950;2023-07-28T05:19:54;97077.22;;;17.86
72054;BMP280;59918;51.280;7.950;2023-07-28T05:22:19;97072.53;;;17.88
72054;BMP280;59918;51.280;7.950;2023-07-28T05:24:45;97076.66;;;17.94
72054;BMP280;59918;51.280;7.950;2023-07-28T05:27:15;97079.00;;;17.95
72054;BMP280;59918;51.280;7.950;2023-07-28T05:29:40;97082.38;;;17.96
72054;BMP280;59918;51.280;7.950;2023-07-28T05:32:05;97090.16;;;18.01
72054;BMP280;59918;51.280;7.950;2023-07-28T05:34:31;97081.56;;;18.05
72054;BMP280;59918;51.280;7.950;2023-07-28T05:36:56;97084.44;;;18.09
72054;BMP280;59918;51.280;7.950;2023-07-28T05:39:22;97085.22;;;18.09
72054;BMP280;59918;51.280;7.950;2023-07-28T05:41:47;97085.97;;;18.15
72054;BMP280;59918;51.280;7.950;2023-07-28T05:44:12;97092.72;;;18.16
72054;BMP280;59918;51.280;7.950;2023-07-28T05:46:40;97092.19;;;18.19
72054;BMP280;59918;51.280;7.950;2023-07-28T05:49:06;97082.28;;;18.21
72054;BMP280;59918;51.280;7.950;2023-07-28T05:51:31;97086.94;;;18.28
72054;BMP280;59918;51.280;7.950;2023-07-28T05:53:57;97082.72;;;18.42
72054;BMP280;59918;51.280;7.950;2023-07-28T05:56:22;97086.34;;;18.46
72054;BMP280;59918;51.280;7.950;2023-07-28T05:58:48;97085.53;;;18.51
72054;BMP280;59918;51.280;7.950;2023-07-28T06:01:19;97091.19;;;18.58
72054;BMP280;59918;51.280;7.950;2023-07-28T06:03:44;97094.28;;;18.60
72054;BMP280;59918;51.280;7.950;2023-07-28T06:06:09;97094.84;;;18.57
72054;BMP280;59918;51.280;7.950;2023-07-28T06:08:35;97097.97;;;18.59
72054;BMP280;59918;51.280;7.950;2023-07-28T06:11:00;97100.00;;;18.66
72054;BMP280;59918;51.280;7.950;2023-07-28T06:13:25;97100.69;;;18.82
72054;BMP280;59918;51.280;7.950;2023-07-28T06:15:53;97102.59;;;19.04
72054;BMP280;59918;51.280;7.950;2023-07-28T06:18:19;97095.44;;;19.20
72054;BMP280;59918;51.280;7.950;2023-07-28T06:20:44;97094.63;;;19.24
72054;BMP280;59918;51.280;7.950;2023-07-28T06:23:09;97093.81;;;19.29
72054;BMP280;59918;51.280;7.950;2023-07-28T06:25:34;97100.28;;;19.31
72054;BMP280;59918;51.280;7.950;2023-07-28T06:28:00;97104.41;;;19.37
72054;BMP280;59918;51.280;7.950;2023-07-28T06:30:25;97108.53;;;19.43
72054;BMP280;59918;51.280;7.950;2023-07-28T06:32:53;97105.91;;;19.43
72054;BMP280;59918;51.280;7.950;2023-07-28T06:35:19;97108.44;;;19.53
72054;BMP280;59918;51.280;7.950;2023-07-28T06:37:44;97109.34;;;19.67
72054;BMP280;59918;51.280;7.950;2023-07-28T06:40:09;97109.78;;;19.74
72054;BMP280;59918;51.280;7.950;2023-07-28T06:42:35;97112.41;;;19.74
72054;BMP280;59918;51.280;7.950;2023-07-28T06:45:01;97117.03;;;19.81
72054;BMP280;59918;51.280;7.950;2023-07-28T06:47:29;97122.97;;;19.87
72054;BMP280;59918;51.280;7.950;2023-07-28T06:49:54;97128.41;;;19.90
72054;BMP280;59918;51.280;7.950;2023-07-28T06:52:19;97129.50;;;19.84
72054;BMP280;59918;51.280;7.950;2023-07-28T06:54:45;97140.53;;;19.81
72054;BMP280;59918;51.280;7.950;2023-07-28T06:57:10;97129.56;;;19.79
72054;BMP280;59918;51.280;7.950;2023-07-28T06:59:35;97131.13;;;19.80
72054;BMP280;59918;51.280;7.950;2023-07-28T07:02:00;97129.50;;;19.84
72054;BMP280;59918;51.280;7.950;2023-07-28T07:04:29;97138.41;;;19.83
72054;BMP280;59918;51.280;7.950;2023-07-28T07:06:54;97141.03;;;19.78
72054;BMP280;59918;51.280;7.950;2023-07-28T07:09:19;97144.19;;;19.75
72054;BMP280;59918;51.280;7.950;2023-07-28T07:11:44;97144.41;;;19.79
72054;BMP280;59918;51.280;7.950;2023-07-28T07:14:16;97147.78;;;19.84
72054;BMP280;59918;51.280;7.950;2023-07-28T07:16:41;97155.75;;;19.93
72054;BMP280;59918;51.280;7.950;2023-07-28T07:19:07;97154.50;;;19.90
72054;BMP280;59918;51.280;7.950;2023-07-28T07:21:32;97151.38;;;19.88
72054;BMP280;59918;51.280;7.950;2023-07-28T07:23:57;97158.66;;;19.91
72054;BMP280;59918;51.280;7.950;2023-07-28T07:26:23;97160.81;;;19.84
72054;BMP280;59918;51.280;7.950;2023-07-28T07:28:48;97161.31;;;19.86
72054;BMP280;59918;51.280;7.950;2023-07-28T07:31:14;97163.19;;;19.81
72054;BMP280;59918;51.280;7.950;2023-07-28T07:33:40;97163.47;;;19.79
72054;BMP280;59918;51.280;7.950;2023-07-28T07:36:14;97170.28;;;19.75
72054;BMP280;59918;51.280;7.950;2023-07-28T07:38:40;97182.81;;;19.74
72054;BMP280;59918;51.280;7.950;2023-07-28T07:41:05;97170.38;;;19.66
72054;BMP280;59918;51.280;7.950;2023-07-28T07:43:30;97172.44;;;19.69
72054;BMP280;59918;51.280;7.950;2023-07-28T07:45:55;97171.28;;;19.79
72054;BMP280;59918;51.280;7.950;2023-07-28T07:48:21;97174.94;;;19.83
72054;BMP280;59918;51.280;7.950;2023-07-28T07:50:46;97178.53;;;19.87
72054;BMP280;59918;51.280;7.950;2023-07-28T07:53:11;97184.97;;;19.95
72054;BMP280;59918;51.280;7.950;2023-07-28T07:55:36;97183.97;;;20.14
72054;BMP280;59918;51.280;7.950;2023-07-28T07:58:02;97181.09;;;20.39
72054;BMP280;59918;51.280;7.950;2023-07-28T08:00:27;97187.94;;;20.53
72054;BMP280;59918;51.280;7.950;2023-07-28T08:02:52;97191.34;;;20.53
72054;BMP280;59918;51.280;7.950;2023-07-28T08:05:21;97189.31;;;20.50
72054;BMP280;59918;51.280;7.950;2023-07-28T08:07:46;97194.53;;;20.50
72054;BMP280;59918;51.280;7.950;2023-07-28T08:10:12;97196.47;;;20.63
72054;BMP280;59918;51.280;7.950;2023-07-28T08:12:37;97195.16;;;20.84
72054;BMP280;59918;51.280;7.950;2023-07-28T08:15:02;97196.06;;;21.11
72054;BMP280;59918;51.280;7.950;2023-07-28T08:17:27;97203.19;;;21.24
72054;BMP280;59918;51.280;7.950;2023-07-28T08:22:27;97216.50;;;20.91
72054;BMP280;59918;51.280;7.950;2023-07-28T08:24:52;97213.25;;;20.99
72054;BMP280;59918;51.280;7.950;2023-07-28T08:27:17;97206.50;;;21.29
72054;BMP280;59918;51.280;7.950;2023-07-28T08:29:43;97207.03;;;21.63
72054;BMP280;59918;51.280;7.950;2023-07-28T08:32:08;97202.47;;;22.13
72054;BMP280;59918;51.280;7.950;2023-07-28T08:34:33;97197.09;;;22.50
72054;BMP280;59918;51.280;7.950;2023-07-28T08:36:59;97205.09;;;22.80
72054;BMP280;59918;51.280;7.950;2023-07-28T08:39:24;97190.94;;;22.68
72054;BMP280;59918;51.280;7.950;2023-07-28T08:42:00;97200.06;;;22.57
72054;BMP280;59918;51.280;7.950;2023-07-28T08:44:26;97200.41;;;22.42
72054;BMP280;59918;51.280;7.950;2023-07-28T08:46:51;97197.38;;;22.62
72054;BMP280;59918;51.280;7.950;2023-07-28T08:49:16;97199.63;;;23.03
72054;BMP280;59918;51.280;7.950;2023-07-28T08:51:42;97207.94;;;23.18
72054;BMP280;59918;51.280;7.950;2023-07-28T08:54:07;97213.22;;;23.05
72054;BMP280;59918;51.280;7.950;2023-07-28T08:56:32;97224.34;;;22.62
72054;BMP280;59918;51.280;7.950;2023-07-28T08:58:59;97217.25;;;22.23
72054;BMP280;59918;51.280;7.950;2023-07-28T09:01:24;97229.91;;;22.02
72054;BMP280;59918;51.280;7.950;2023-07-28T09:03:49;97233.75;;;21.92
72054;BMP280;59918;51.280;7.950;2023-07-28T09:06:14;97226.38;;;21.80
72054;BMP280;59918;51.280;7.950;2023-07-28T09:08:40;97231.63;;;21.94
72054;BMP280;59918;51.280;7.950;2023-07-28T09:11:08;97219.34;;;22.07
72054;BMP280;59918;51.280;7.950;2023-07-28T09:13:39;97226.47;;;22.20
72054;BMP280;59918;51.280;7.950;2023-07-28T09:16:04;97217.16;;;22.41
72054;BMP280;59918;51.280;7.950;2023-07-28T09:18:30;97224.06;;;22.64
72054;BMP280;59918;51.280;7.950;2023-07-28T09:20:55;97224.34;;;22.62
72054;BMP280;59918;51.280;7.950;2023-07-28T09:23:28;97229.78;;;22.39
72054;BMP280;59918;51.280;7.950;2023-07-28T09:25:59;97238.31;;;22.31
72054;BMP280;59918;51.280;7.950;2023-07-28T09:28:36;97237.22;;;22.45
72054;BMP280;59918;51.280;7.950;2023-07-28T09:31:03;97231.34;;;22.40
72054;BMP280;59918;51.280;7.950;2023-07-28T09:33:33;97234.22;;;22.65
72054;BMP280;59918;51.280;7.950;2023-07-28T09:36:07;97224.50;;;22.92
72054;BMP280;59918;51.280;7.950;2023-07-28T09:38:37;97227.78;;;23.11
72054;BMP280;59918;51.280;7.950;2023-07-28T09:41:04;97233.00;;;23.11
72054;BMP280;59918;51.280;7.950;2023-07-28T09:43:29;97229.72;;;23.41
72054;BMP280;59918;51.280;7.950;2023-07-28T09:45:55;97222.22;;;23.69
72054;BMP280;59918;51.280;7.950;2023-07-28T09:48:21;97226.16;;;23.80
72054;BMP280;59918;51.280;7.950;2023-07-28T09:50:46;97219.75;;;23.73
72054;BMP280;59918;51.280;7.950;2023-07-28T09:53:13;97223.41;;;23.85
72054;BMP280;59918;51.280;7.950;2023-07-28T09:55:39;97231.25;;;24.07
72054;BMP280;59918;51.280;7.950;2023-07-28T09:58:05;97223.44;;;24.54
72054;BMP280;59918;51.280;7.950;2023-07-28T10:00:30;97222.94;;;25.15
72054;BMP280;59918;51.280;7.950;2023-07-28T10:02:56;97221.25;;;25.36
72054;BMP280;59918;51.280;7.950;2023-07-28T10:05:23;97213.97;;;25.16
72054;BMP280;59918;51.280;7.950;2023-07-28T10:07:49;97217.50;;;25.03
72054;BMP280;59918;51.280;7.950;2023-07-28T10:10:14;97230.19;;;24.93
72054;BMP280;59918;51.280;7.950;2023-07-28T10:12:50;97227.09;;;25.08
72054;BMP280;59918;51.280;7.950;2023-07-28T10:15:18;97210.84;;;25.65
72054;BMP280;59918;51.280;7.950;2023-07-28T10:17:50;97215.63;;;25.88
72054;BMP280;59918;51.280;7.950;2023-07-28T10:23:06;97221.47;;;26.76
72054;BMP280;59918;51.280;7.950;2023-07-28T10:25:33;97217.88;;;27.49
72054;BMP280;59918;51.280;7.950;2023-07-28T10:27:59;97220.94;;;27.31
72054;BMP280;59918;51.280;7.950;2023-07-28T10:30:24;97220.25;;;27.02
72054;BMP280;59918;51.280;7.950;2023-07-28T10:32:49;97233.06;;;26.26
72054;BMP280;59918;51.280;7.950;2023-07-28T10:37:44;97229.13;;;25.36
72054;BMP280;59918;51.280;7.950;2023-07-28T10:40:29;97235.16;;;25.20
72054;BMP280;59918;51.280;7.950;2023-07-28T10:42:55;97234.09;;;25.12
72054;BMP280;59918;51.280;7.950;2023-07-28T10:45:23;97246.16;;;25.38
72054;BMP280;59918;51.280;7.950;2023-07-28T10:47:48;97241.34;;;25.74
72054;BMP280;59918;51.280;7.950;2023-07-28T10:50:14;97239.31;;;25.96
72054;BMP280;59918;51.280;7.950;2023-07-28T10:52:44;97238.38;;;26.01
72054;BMP280;59918;51.280;7.950;2023-07-28T10:55:14;97246.72;;;26.03
72054;BMP280;59918;51.280;7.950;2023-07-28T10:57:44;97242.56;;;25.93
72054;BMP280;59918;51.280;7.950;2023-07-28T11:00:11;97255.16;;;25.63
72054;BMP280;59918;51.280;7.950;2023-07-28T11:02:44;97251.25;;;25.27
72054;BMP280;59918;51.280;7.950;2023-07-28T11:05:18;97256.28;;;24.90
72054;BMP280;59918;51.280;7.950;2023-07-28T11:07:44;97257.50;;;24.67
72054;BMP280;59918;51.280;7.950;2023-07-28T11:10:10;97255.97;;;24.36
72054;BMP280;59918;51.280;7.950;2023-07-28T11:12:35;97259.84;;;24.38
72054;BMP280;59918;51.280;7.950;2023-07-28T11:15:01;97258.34;;;24.54
72054;BMP280;59918;51.280;7.950;2023-07-28T11:17:26;97258.81;;;25.03
72054;BMP280;59918;51.280;7.950;2023-07-28T11:19:51;97260.84;;;25.14
72054;BMP280;59918;51.280;7.950;2023-07-28T11:22:16;97254.19;;;25.17
72054;BMP280;59918;51.280;7.950;2023-07-28T11:24:42;97261.16;;;25.55
72054;BMP280;59918;51.280;7.950;2023-07-28T11:27:07;97252.91;;;27.17
72054;BMP280;59918;51.280;7.950;2023-07-28T11:29:33;97241.22;;;27.79
72054;BMP280;59918;51.280;7.950;2023-07-28T11:31:58;97252.84;;;27.26
72054;BMP280;59918;51.280;7.950;2023-07-28T11:34:23;97252.03;;;27.05
72054;BMP280;59918;51.280;7.950;2023-07-28T11:36:49;97255.28;;;26.82
72054;BMP280;59918;51.280;7.950;2023-07-28T11:39:18;97257.50;;;26.35
72054;BMP280;59918;51.280;7.950;2023-07-28T11:41:44;97264.88;;;26.04
72054;BMP280;59918;51.280;7.950;2023-07-28T11:44:10;97256.66;;;25.80
72054;BMP280;59918;51.280;7.950;2023-07-28T11:46:40;97248.94;;;25.92
72054;BMP280;59918;51.280;7.950;2023-07-28T11:51:38;97255.53;;;26.60
72054;BMP280;59918;51.280;7.950;2023-07-28T11:54:03;97250.44;;;26.92
72054;BMP280;59918;51.280;7.950;2023-07-28T11:56:29;97246.59;;;27.71
72054;BMP280;59918;51.280;7.950;2023-07-28T11:58:54;97238.63;;;29.84
72054;BMP280;59918;51.280;7.950;2023-07-28T12:01:19;97230.91;;;30.52
72054;BMP280;59918;51.280;7.950;2023-07-28T12:03:45;97235.88;;;29.41
72054;BMP280;59918;51.280;7.950;2023-07-28T12:06:10;97235.06;;;29.26
72054;BMP280;59918;51.280;7.950;2023-07-28T12:08:36;97241.47;;;29.01
72054;BMP280;59918;51.280;7.950;2023-07-28T12:11:01;97256.66;;;27.89
72054;BMP280;59918;51.280;7.950;2023-07-28T12:13:27;97244.63;;;26.99
72054;BMP280;59918;51.280;7.950;2023-07-28T12:15:52;97238.06;;;26.47
72054;BMP280;59918;51.280;7.950;2023-07-28T12:18:17;97245.44;;;26.25
72054;BMP280;59918;51.280;7.950;2023-07-28T12:23:11;97235.09;;;26.49
72054;BMP280;59918;51.280;7.950;2023-07-28T12:25:39;97237.56;;;26.54
72054;BMP280;59918;51.280;7.950;2023-07-28T12:28:05;97247.75;;;26.27
72054;BMP280;59918;51.280;7.950;2023-07-28T12:30:30;97251.53;;;26.01
72054;BMP280;59918;51.280;7.950;2023-07-28T12:32:55;97250.06;;;25.58
72054;BMP280;59918;51.280;7.950;2023-07-28T12:35:21;97256.69;;;25.38
72054;BMP280;59918;51.280;7.950;2023-07-28T12:37:47;97262.72;;;25.22
72054;BMP280;59918;51.280;7.950;2023-07-28T12:40:12;97263.00;;;25.04
72054;BMP280;59918;51.280;7.950;2023-07-28T12:42:37;97254.81;;;25.05
72054;BMP280;59918;51.280;7.950;2023-07-28T12:45:03;97252.94;;;25.98
72054;BMP280;59918;51.280;7.950;2023-07-28T12:47:28;97252.50;;;27.68
72054;BMP280;59918;51.280;7.950;2023-07-28T12:49:53;97244.34;;;29.08
72054;BMP280;59918;51.280;7.950;2023-07-28T12:52:18;97227.31;;;30.29
72054;BMP280;59918;51.280;7.950;2023-07-28T12:54:44;97232.03;;;30.51
72054;BMP280;59918;51.280;7.950;2023-07-28T12:57:10;97221.41;;;31.91
72054;BMP280;59918;51.280;7.950;2023-07-28T12:59:36;97229.78;;;33.33
72054;BMP280;59918;51.280;7.950;2023-07-28T13:02:01;97228.56;;;33.56
72054;BMP280;59918;51.280;7.950;2023-07-28T13:04:26;97226.38;;;33.36
72054;BMP280;59918;51.280;7.950;2023-07-28T13:06:51;97226.47;;;33.75
72054;BMP280;59918;51.280;7.950;2023-07-28T13:09:17;97219.56;;;34.43
72054;BMP280;59918;51.280;7.950;2023-07-28T13:11:42;97206.00;;;34.22
72054;BMP280;59918;51.280;7.950;2023-07-28T13:14:07;97227.66;;;33.45
72054;BMP280;59918;51.280;7.950;2023-07-28T13:16:32;97238.44;;;32.08
72054;BMP280;59918;51.280;7.950;2023-07-28T13:18:58;97235.88;;;30.38
72054;BMP280;59918;51.280;7.950;2023-07-28T13:21:23;97234.06;;;29.18
72054;BMP280;59918;51.280;7.950;2023-07-28T13:23:48;97241.63;;;28.69
72054;BMP280;59918;51.280;7.950;2023-07-28T13:26:14;97233.84;;;29.00
72054;BMP280;59918;51.280;7.950;2023-07-28T13:28:39;97239.97;;;28.76
72054;BMP280;59918;51.280;7.950;2023-07-28T13:31:04;97238.06;;;28.41
72054;BMP280;59918;51.280;7.950;2023-07-28T13:33:30;97221.56;;;28.68
72054;BMP280;59918;51.280;7.950;2023-07-28T13:35:55;97227.63;;;28.68
72054;BMP280;59918;51.280;7.950;2023-07-28T13:38:21;97227.34;;;29.09
72054;BMP280;59918;51.280;7.950;2023-07-28T13:40:46;97210.75;;;29.90
72054;BMP280;59918;51.280;7.950;2023-07-28T13:43:11;97210.47;;;30.52
72054;BMP280;59918;51.280;7.950;2023-07-28T13:45:37;97216.16;;;30.24
72054;BMP280;59918;51.280;7.950;2023-07-28T13:48:02;97209.31;;;30.23
72054;BMP280;59918;51.280;7.950;2023-07-28T13:50:27;97208.34;;;30.77
72054;BMP280;59918;51.280;7.950;2023-07-28T13:52:52;97220.31;;;31.35
72054;BMP280;59918;51.280;7.950;2023-07-28T13:55:18;97222.00;;;31.28
72054;BMP280;59918;51.280;7.950;2023-07-28T13:57:43;97212.53;;;30.93
72054;BMP280;59918;51.280;7.950;2023-07-28T14:00:08;97207.63;;;30.30
72054;BMP280;59918;51.280;7.950;2023-07-28T14:02:37;97206.69;;;31.03
72054;BMP280;59918;51.280;7.950;2023-07-28T14:05:03;97203.03;;;31.82
72054;BMP280;59918;51.280;7.950;2023-07-28T14:07:28;97203.09;;;31.67
72054;BMP280;59918;51.280;7.950;2023-07-28T14:09:53;97203.03;;;30.27
72054;BMP280;59918;51.280;7.950;2023-07-28T14:12:24;97211.06;;;29.73
72054;BMP280;59918;51.280;7.950;2023-07-28T14:14:50;97217.47;;;29.60
72054;BMP280;59918;51.280;7.950;2023-07-28T14:17:15;97205.25;;;29.56
72054;BMP280;59918;51.280;7.950;2023-07-28T14:19:41;97193.75;;;29.91
72054;BMP280;59918;51.280;7.950;2023-07-28T14:22:06;97195.09;;;29.58
72054;BMP280;59918;51.280;7.950;2023-07-28T14:24:31;97192.44;;;29.85
72054;BMP280;59918;51.280;7.950;2023-07-28T14:26:57;97199.88;;;29.25